createdAt,value
2022-12-31T00:01:39.505Z,93.40
2022-12-31T00:04:06.783Z,93.00
2022-12-31T00:06:36.378Z,92.90
2022-12-31T00:09:09.230Z,92.90
2022-12-31T00:11:36.777Z,92.90
2022-12-31T00:14:04.754Z,93.10
2022-12-31T00:16:37.911Z,93.20
2022-12-31T00:19:07.261Z,93.40
2022-12-31T00:21:36.231Z,93.70
2022-12-31T00:24:05.508Z,93.70
2022-12-31T00:26:34.387Z,93.80
2022-12-31T00:29:02.660Z,94.00
2022-12-31T00:31:33.114Z,94.10
2022-12-31T00:34:01.005Z,94.10
2022-12-31T00:36:34.949Z,94.20
2022-12-31T00:39:03.986Z,94.30
2022-12-31T00:41:31.216Z,94.60
2022-12-31T00:43:59.341Z,94.80
2022-12-31T00:46:27.370Z,95.10
2022-12-31T00:48:54.789Z,95.30
2022-12-31T00:51:23.804Z,95.40
2022-12-31T00:53:52.251Z,95.40
2022-12-31T00:56:27.921Z,95.70
2022-12-31T00:58:58.831Z,96.00
2022-12-31T01:01:38.643Z,96.40
2022-12-31T01:04:13.017Z,96.40
2022-12-31T01:06:41.712Z,96.70
2022-12-31T01:09:10.260Z,96.90
2022-12-31T01:11:37.539Z,96.80
2022-12-31T01:14:09.515Z,97.00
2022-12-31T01:16:42.814Z,97.10
2022-12-31T01:19:16.302Z,97.20
2022-12-31T01:21:44.602Z,97.40
2022-12-31T01:24:12.950Z,97.40
2022-12-31T01:26:40.805Z,97.50
2022-12-31T01:29:09.043Z,97.70
2022-12-31T01:31:37.240Z,97.70
2022-12-31T01:34:05.311Z,97.80
2022-12-31T01:36:34.310Z,97.80
2022-12-31T01:39:05.438Z,97.80
2022-12-31T01:41:37.822Z,97.80
2022-12-31T01:44:14.224Z,98.00
2022-12-31T01:46:54.861Z,98.00
2022-12-31T01:49:28.290Z,98.00
2022-12-31T01:52:03.184Z,98.10
2022-12-31T01:54:34.687Z,98.10
2022-12-31T01:57:05.726Z,98.20
2022-12-31T01:59:34.339Z,98.20
2022-12-31T02:02:08.036Z,98.10
2022-12-31T02:04:37.682Z,98.00
2022-12-31T02:07:07.592Z,98.00
2022-12-31T02:09:38.911Z,98.00
2022-12-31T02:12:09.268Z,98.00
2022-12-31T02:14:49.267Z,97.90
2022-12-31T02:17:30.970Z,98.00
2022-12-31T02:20:19.760Z,97.90
2022-12-31T02:23:11.321Z,97.80
2022-12-31T02:26:00.090Z,97.80
2022-12-31T02:28:52.634Z,97.60
2022-12-31T02:31:40.106Z,97.70
2022-12-31T02:34:13.532Z,97.60
2022-12-31T02:36:44.586Z,97.50
2022-12-31T02:39:12.590Z,97.30
2022-12-31T02:41:52.420Z,97.20
2022-12-31T02:44:26.117Z,97.20
2022-12-31T02:47:09.098Z,97.00
2022-12-31T02:49:57.205Z,97.10
2022-12-31T02:52:48.563Z,97.10
2022-12-31T02:55:27.919Z,97.00
2022-12-31T02:58:20.383Z,96.90
2022-12-31T03:01:15.026Z,96.90
2022-12-31T03:03:45.363Z,96.80
2022-12-31T03:06:13.989Z,96.80
2022-12-31T03:09:01.998Z,96.70
2022-12-31T03:11:49.402Z,96.90
2022-12-31T03:14:17.314Z,96.80
2022-12-31T03:16:44.566Z,96.70
2022-12-31T03:19:30.182Z,96.70
2022-12-31T03:22:16.386Z,96.60
2022-12-31T03:25:08.448Z,96.80
2022-12-31T03:27:39.827Z,96.80
2022-12-31T03:30:07.805Z,96.80
2022-12-31T03:32:37.811Z,96.80
2022-12-31T03:35:06.091Z,96.80
2022-12-31T03:37:33.356Z,96.70
2022-12-31T03:40:03.913Z,96.80
2022-12-31T03:42:33.618Z,96.70
2022-12-31T03:45:01.353Z,96.80
2022-12-31T03:47:35.739Z,96.80
2022-12-31T03:50:03.863Z,96.70
2022-12-31T03:52:31.079Z,96.70
2022-12-31T03:54:58.903Z,96.60
2022-12-31T03:57:26.192Z,96.60
2022-12-31T03:59:53.562Z,96.50
2022-12-31T04:02:28.052Z,96.50
2022-12-31T04:04:55.999Z,96.50
2022-12-31T04:07:26.055Z,96.40
2022-12-31T04:09:53.158Z,96.50
2022-12-31T04:12:20.309Z,96.50
2022-12-31T04:14:50.604Z,96.30
2022-12-31T04:17:18.493Z,96.30
2022-12-31T04:19:45.884Z,96.20
2022-12-31T04:22:14.463Z,96.30
2022-12-31T04:24:45.726Z,96.20
2022-12-31T04:27:20.190Z,96.10
2022-12-31T04:29:54.633Z,96.10
2022-12-31T04:32:24.579Z,96.10
2022-12-31T04:34:52.174Z,96.30
2022-12-31T04:37:19.603Z,96.30
2022-12-31T04:39:49.842Z,96.40
2022-12-31T04:42:17.088Z,96.20
2022-12-31T04:44:44.315Z,96.20
2022-12-31T04:47:23.656Z,96.30
2022-12-31T04:49:51.464Z,96.30
2022-12-31T04:52:18.665Z,96.30
2022-12-31T04:54:45.902Z,96.30
2022-12-31T04:57:15.773Z,96.20
2022-12-31T04:59:43.490Z,96.10
2022-12-31T05:02:12.798Z,95.90
2022-12-31T05:04:40.155Z,96.00
2022-12-31T05:07:07.712Z,95.90
2022-12-31T05:09:35.511Z,95.80
2022-12-31T05:12:02.878Z,95.70
2022-12-31T05:14:30.196Z,95.60
2022-12-31T05:17:01.346Z,95.50
2022-12-31T05:19:28.906Z,95.50
2022-12-31T05:22:17.348Z,95.50
2022-12-31T05:24:44.580Z,95.50
2022-12-31T05:27:11.843Z,95.40
2022-12-31T05:29:39.653Z,95.40
2022-12-31T05:32:06.769Z,95.40
2022-12-31T05:34:39.529Z,95.30
2022-12-31T05:37:11.860Z,95.30
2022-12-31T05:39:47.863Z,95.20
2022-12-31T05:42:16.431Z,95.00
2022-12-31T05:44:52.476Z,95.00
2022-12-31T05:47:19.905Z,94.70
2022-12-31T05:49:47.172Z,94.70
2022-12-31T05:52:14.826Z,94.80
2022-12-31T05:54:42.182Z,94.90
2022-12-31T05:57:13.217Z,94.90
2022-12-31T05:59:40.368Z,94.80
2022-12-31T06:02:10.191Z,94.70
2022-12-31T06:04:42.885Z,94.30
2022-12-31T06:07:13.870Z,94.10
2022-12-31T06:09:44.262Z,93.70
2022-12-31T06:12:11.841Z,93.40
2022-12-31T06:14:45.296Z,93.20
2022-12-31T06:17:13.091Z,93.20
2022-12-31T06:19:40.202Z,92.90
2022-12-31T06:22:10.480Z,92.70
2022-12-31T06:24:37.793Z,92.60
2022-12-31T06:27:05.205Z,92.40
2022-12-31T06:29:33.150Z,92.30
2022-12-31T06:32:00.471Z,92.20
2022-12-31T06:34:30.677Z,91.90
2022-12-31T06:36:58.183Z,91.80
2022-12-31T06:39:26.432Z,91.60
2022-12-31T06:41:54.359Z,91.60
2022-12-31T06:44:23.705Z,91.30
2022-12-31T06:46:53.599Z,91.30
2022-12-31T06:49:30.170Z,91.30
2022-12-31T06:52:00.134Z,91.30
2022-12-31T06:54:30.373Z,91.20
2022-12-31T06:57:01.303Z,91.10
2022-12-31T06:59:33.954Z,91.20
2022-12-31T07:02:16.141Z,91.10
2022-12-31T07:05:13.758Z,91.10
2022-12-31T07:07:50.379Z,91.00
2022-12-31T07:10:52.050Z,90.90
2022-12-31T07:13:30.953Z,90.80
2022-12-31T07:16:02.890Z,90.60
2022-12-31T07:19:09.746Z,90.40
2022-12-31T07:21:40.192Z,90.60
2022-12-31T07:24:12.599Z,90.60
2022-12-31T07:27:11.210Z,90.50
2022-12-31T07:30:16.128Z,90.90
2022-12-31T07:32:52.204Z,90.90
2022-12-31T07:35:43.061Z,90.80
2022-12-31T07:38:35.733Z,91.00
2022-12-31T07:41:30.744Z,91.20
2022-12-31T07:44:19.422Z,91.40
2022-12-31T07:47:00.702Z,91.60
2022-12-31T07:49:30.147Z,91.80
2022-12-31T07:52:00.255Z,92.30
2022-12-31T07:54:30.315Z,92.60
2022-12-31T07:57:01.004Z,93.00
2022-12-31T07:59:34.222Z,93.40
2022-12-31T08:02:20.493Z,93.90
2022-12-31T08:05:08.614Z,94.20
2022-12-31T08:08:09.866Z,94.40
2022-12-31T08:10:52.249Z,94.80
2022-12-31T08:13:22.530Z,94.70
2022-12-31T08:15:50.281Z,94.70
2022-12-31T08:18:17.866Z,94.90
2022-12-31T08:21:37.659Z,94.80
2022-12-31T08:24:36.373Z,94.90
2022-12-31T08:27:51.255Z,95.00
2022-12-31T08:30:21.810Z,94.80
2022-12-31T08:33:14.992Z,94.80
2022-12-31T08:36:10.963Z,94.80
2022-12-31T08:38:55.424Z,94.90
2022-12-31T08:41:25.981Z,94.90
2022-12-31T08:44:06.016Z,94.80
2022-12-31T08:46:54.956Z,94.70
2022-12-31T08:49:22.679Z,94.70
2022-12-31T08:51:52.442Z,94.70
2022-12-31T08:54:20.503Z,94.30
2022-12-31T08:57:10.108Z,94.60
2022-12-31T09:00:06.128Z,94.60
2022-12-31T09:02:54.441Z,94.10
2022-12-31T09:05:48.810Z,94.00
2022-12-31T09:08:34.207Z,93.60
2022-12-31T09:11:26.194Z,93.50
2022-12-31T09:14:36.083Z,93.50
2022-12-31T09:17:30.211Z,93.60
2022-12-31T09:19:57.860Z,93.80
2022-12-31T09:22:32.965Z,94.20
2022-12-31T09:25:00.862Z,94.60
2022-12-31T09:27:42.867Z,94.90
2022-12-31T09:30:16.229Z,95.00
2022-12-31T09:33:07.532Z,95.00
2022-12-31T09:36:17.256Z,94.80
2022-12-31T09:38:53.571Z,94.90
2022-12-31T09:41:33.468Z,94.70
2022-12-31T09:44:28.890Z,94.80
2022-12-31T09:47:02.233Z,94.90
2022-12-31T09:49:53.409Z,94.80
2022-12-31T09:52:36.245Z,94.90
2022-12-31T09:55:27.726Z,94.70
2022-12-31T09:58:32.996Z,95.00
2022-12-31T10:01:28.226Z,94.90
2022-12-31T10:04:24.581Z,94.70
2022-12-31T10:07:32.772Z,94.80
2022-12-31T10:10:08.841Z,94.70
2022-12-31T10:13:09.784Z,94.50
2022-12-31T10:16:32.881Z,94.60
2022-12-31T10:19:27.432Z,94.50
2022-12-31T10:24:58.099Z,94.70
2022-12-31T10:27:33.500Z,94.80
2022-12-31T10:30:24.469Z,94.90
2022-12-31T10:33:08.712Z,94.80
2022-12-31T10:35:50.002Z,94.90
2022-12-31T10:38:36.852Z,95.00
2022-12-31T10:41:22.761Z,95.00
2022-12-31T10:43:59.056Z,95.00
2022-12-31T10:46:50.460Z,94.90
2022-12-31T10:49:42.693Z,95.10
2022-12-31T10:53:02.748Z,95.00
2022-12-31T10:56:09.681Z,95.00
2022-12-31T10:59:15.403Z,95.10
2022-12-31T11:02:14.293Z,95.00
2022-12-31T11:05:03.370Z,95.10
2022-12-31T11:08:28.265Z,95.30
2022-12-31T11:11:20.968Z,95.20
2022-12-31T11:14:18.838Z,95.30
2022-12-31T11:16:55.074Z,95.40
2022-12-31T11:19:22.865Z,95.50
2022-12-31T11:22:04.998Z,95.40
2022-12-31T11:24:52.352Z,95.50
2022-12-31T11:27:26.018Z,95.40
2022-12-31T11:30:14.431Z,95.40
2022-12-31T11:33:22.783Z,95.50
2022-12-31T11:36:06.996Z,95.60
2022-12-31T11:38:38.879Z,95.50
2022-12-31T11:41:08.097Z,95.10
2022-12-31T11:44:03.017Z,95.30
2022-12-31T11:47:02.396Z,95.30
2022-12-31T11:49:44.139Z,95.30
2022-12-31T11:52:33.664Z,95.40
2022-12-31T11:55:15.966Z,95.60
2022-12-31T11:57:49.993Z,95.70
2022-12-31T12:00:21.349Z,95.50
2022-12-31T12:03:00.164Z,95.60
2022-12-31T12:06:06.305Z,95.50
2022-12-31T12:08:34.700Z,95.50
2022-12-31T12:11:25.666Z,96.00
2022-12-31T12:13:57.791Z,95.90
2022-12-31T12:16:31.348Z,95.70
2022-12-31T12:19:07.609Z,95.70
2022-12-31T12:21:44.743Z,95.80
2022-12-31T12:24:33.227Z,95.60
2022-12-31T12:27:00.645Z,95.70
2022-12-31T12:29:31.734Z,95.80
2022-12-31T12:32:27.826Z,95.70
2022-12-31T12:34:55.310Z,95.70
2022-12-31T12:37:30.305Z,95.70
2022-12-31T12:40:01.175Z,95.90
2022-12-31T12:42:37.567Z,95.90
2022-12-31T12:45:06.756Z,95.50
2022-12-31T12:47:37.585Z,95.50
2022-12-31T12:50:18.808Z,95.60
2022-12-31T12:53:32.027Z,95.70
2022-12-31T12:56:40.120Z,95.70
2022-12-31T12:59:44.988Z,95.90
2022-12-31T13:02:31.129Z,95.60
2022-12-31T13:05:05.959Z,95.90
2022-12-31T13:07:52.099Z,95.80
2022-12-31T13:10:37.546Z,95.70
2022-12-31T13:13:23.857Z,95.70
2022-12-31T13:16:17.298Z,95.80
2022-12-31T13:19:08.712Z,95.80
2022-12-31T13:21:44.317Z,96.00
2022-12-31T13:24:30.891Z,96.20
2022-12-31T13:27:20.423Z,96.20
2022-12-31T13:29:49.277Z,96.30
2022-12-31T13:32:43.904Z,96.50
2022-12-31T13:35:32.554Z,96.30
2022-12-31T13:38:33.819Z,96.50
2022-12-31T13:41:27.680Z,96.70
2022-12-31T13:44:04.280Z,96.80
2022-12-31T13:46:49.647Z,96.70
2022-12-31T13:49:31.723Z,96.90
2022-12-31T13:52:26.314Z,96.80
2022-12-31T13:55:12.957Z,96.80
2022-12-31T13:57:57.662Z,96.80
2022-12-31T14:00:31.560Z,96.90
2022-12-31T14:03:13.136Z,96.80
2022-12-31T14:05:58.961Z,96.80
2022-12-31T14:08:26.148Z,96.70
2022-12-31T14:11:25.772Z,96.70
2022-12-31T14:14:15.853Z,96.90
2022-12-31T14:17:19.666Z,96.70
2022-12-31T14:20:16.416Z,96.60
2022-12-31T14:22:48.706Z,96.50
2022-12-31T14:25:31.513Z,96.40
2022-12-31T14:28:02.870Z,96.50
2022-12-31T14:30:40.107Z,96.50
2022-12-31T14:33:30.443Z,96.70
2022-12-31T14:36:20.472Z,96.50
2022-12-31T14:42:53.806Z,96.50
2022-12-31T14:45:44.960Z,96.50
2022-12-31T14:48:18.592Z,96.60
2022-12-31T14:50:49.565Z,96.80
2022-12-31T14:53:24.556Z,97.10
2022-12-31T14:56:31.316Z,97.20
2022-12-31T14:59:01.680Z,97.40
2022-12-31T15:01:31.111Z,97.50
2022-12-31T15:04:01.226Z,97.50
2022-12-31T15:06:58.137Z,97.40
2022-12-31T15:09:59.415Z,97.30
2022-12-31T15:13:07.615Z,97.20
2022-12-31T15:15:38.445Z,97.10
2022-12-31T15:18:27.469Z,97.20
2022-12-31T15:21:16.843Z,97.30
2022-12-31T15:26:31.085Z,97.40
2022-12-31T15:29:08.316Z,97.50
2022-12-31T15:31:36.771Z,97.40
2022-12-31T15:34:07.987Z,97.40
2022-12-31T15:36:40.917Z,97.50
2022-12-31T15:39:14.130Z,97.50
2022-12-31T15:42:18.837Z,97.50
2022-12-31T15:44:55.537Z,97.40
2022-12-31T15:47:40.531Z,97.40
2022-12-31T15:50:22.300Z,97.50
2022-12-31T15:52:52.768Z,97.60
2022-12-31T15:55:44.584Z,97.40
2022-12-31T15:58:18.259Z,97.60
2022-12-31T16:00:59.786Z,97.40
2022-12-31T16:03:30.847Z,97.50
2022-12-31T16:06:10.816Z,97.70
2022-12-31T16:08:45.535Z,97.50
2022-12-31T16:11:13.318Z,97.50
2022-12-31T16:13:44.671Z,97.50
2022-12-31T16:16:36.848Z,97.70
2022-12-31T16:19:06.557Z,97.80
2022-12-31T16:21:39.140Z,98.00
2022-12-31T16:24:29.343Z,98.10
2022-12-31T16:27:08.257Z,98.40
2022-12-31T16:29:50.615Z,98.30
2022-12-31T16:32:22.536Z,98.40
2022-12-31T16:34:55.111Z,98.50
2022-12-31T16:37:23.768Z,98.50
2022-12-31T16:39:57.115Z,98.50
2022-12-31T16:42:28.219Z,98.40
2022-12-31T16:44:57.643Z,98.30
2022-12-31T16:47:57.290Z,98.40
2022-12-31T16:50:36.591Z,98.30
2022-12-31T16:53:07.533Z,98.40
2022-12-31T16:55:39.498Z,98.60
2022-12-31T16:58:28.582Z,98.50
2022-12-31T17:01:13.559Z,98.40
2022-12-31T17:03:59.324Z,98.60
2022-12-31T17:06:31.453Z,98.50
2022-12-31T17:09:00.093Z,98.60
2022-12-31T17:11:59.635Z,98.60
2022-12-31T17:14:32.987Z,98.50
2022-12-31T17:17:14.965Z,98.60
2022-12-31T17:19:53.139Z,98.60
2022-12-31T17:22:36.500Z,98.80
2022-12-31T17:25:27.462Z,98.80
2022-12-31T17:28:07.485Z,98.80
2022-12-31T17:30:40.884Z,98.80
2022-12-31T17:33:08.075Z,98.80
2022-12-31T17:35:44.483Z,98.90
2022-12-31T17:38:33.455Z,98.90
2022-12-31T17:41:06.789Z,98.90
2022-12-31T17:43:40.008Z,98.90
2022-12-31T17:46:16.411Z,98.80
2022-12-31T17:48:47.197Z,99.00
2022-12-31T17:51:17.059Z,99.20
2022-12-31T17:53:53.052Z,99.00
2022-12-31T17:56:21.133Z,99.10
2022-12-31T17:58:52.716Z,99.20
2022-12-31T18:01:22.958Z,99.30
2022-12-31T18:03:50.845Z,99.30
2022-12-31T18:06:21.723Z,99.20
2022-12-31T18:08:49.319Z,99.30
2022-12-31T18:11:22.589Z,99.40
2022-12-31T18:13:50.413Z,99.30
2022-12-31T18:16:17.840Z,99.30
2022-12-31T18:18:47.483Z,99.50
2022-12-31T18:21:23.656Z,99.60
2022-12-31T18:23:50.977Z,99.70
2022-12-31T18:26:30.292Z,99.50
2022-12-31T18:29:00.803Z,99.50
2022-12-31T18:31:30.228Z,99.50
2022-12-31T18:34:00.793Z,99.50
2022-12-31T18:36:31.601Z,99.50
2022-12-31T18:39:01.592Z,99.60
2022-12-31T18:41:45.865Z,99.20
2022-12-31T18:44:16.987Z,99.30
2022-12-31T18:46:46.806Z,99.30
2022-12-31T18:49:17.338Z,99.40
2022-12-31T18:51:44.338Z,99.30
2022-12-31T18:54:17.133Z,99.30
2022-12-31T18:56:50.283Z,99.50
2022-12-31T18:59:21.213Z,99.30
2022-12-31T19:01:49.350Z,99.10
2022-12-31T19:04:27.483Z,99.20
2022-12-31T19:07:16.403Z,99.40
2022-12-31T19:09:45.581Z,99.10
2022-12-31T19:12:14.366Z,99.10
2022-12-31T19:14:45.662Z,99.10
2022-12-31T19:17:12.904Z,99.30
2022-12-31T19:19:46.165Z,99.20
2022-12-31T19:22:16.404Z,99.00
2022-12-31T19:24:44.150Z,99.00
2022-12-31T19:27:17.859Z,99.00
2022-12-31T19:29:46.510Z,99.10
2022-12-31T19:32:13.997Z,98.90
2022-12-31T19:34:41.740Z,98.80
2022-12-31T19:37:15.242Z,98.90
2022-12-31T19:39:42.528Z,98.90
2022-12-31T19:42:16.335Z,98.90
2022-12-31T19:44:46.398Z,98.90
2022-12-31T19:47:14.350Z,98.70
2022-12-31T19:49:44.578Z,98.70
2022-12-31T19:52:14.773Z,98.80
2022-12-31T19:54:41.954Z,98.80
2022-12-31T19:57:09.550Z,98.60
2022-12-31T19:59:37.117Z,98.70
2022-12-31T20:02:04.647Z,98.70
2022-12-31T20:04:32.360Z,98.90
2022-12-31T20:06:59.857Z,98.90
2022-12-31T20:09:27.544Z,98.90
2022-12-31T20:11:56.396Z,98.90
2022-12-31T20:14:23.922Z,98.80
2022-12-31T20:16:54.088Z,98.90
2022-12-31T20:19:24.063Z,99.00
2022-12-31T20:21:59.798Z,98.90
2022-12-31T20:24:34.199Z,98.80
2022-12-31T20:27:01.794Z,98.80
2022-12-31T20:29:31.560Z,98.80
2022-12-31T20:31:58.923Z,98.80
2022-12-31T20:34:31.898Z,98.60
2022-12-31T20:37:02.897Z,98.70
2022-12-31T20:39:33.093Z,98.40
2022-12-31T20:42:00.630Z,98.40
2022-12-31T20:44:28.469Z,98.70
2022-12-31T20:46:55.960Z,98.70
2022-12-31T20:49:44.861Z,98.90
2022-12-31T20:52:13.856Z,98.90
2022-12-31T20:54:41.565Z,98.90
2022-12-31T20:57:11.507Z,98.90
2022-12-31T20:59:40.902Z,98.80
2022-12-31T21:02:21.105Z,98.80
2022-12-31T21:04:49.211Z,98.90
2022-12-31T21:07:25.976Z,98.80
2022-12-31T21:09:53.570Z,98.90
2022-12-31T21:12:39.001Z,99.00
2022-12-31T21:15:06.881Z,99.00
2022-12-31T21:17:34.145Z,98.90
2022-12-31T21:20:05.360Z,99.00
2022-12-31T21:22:34.191Z,98.90
2022-12-31T21:25:05.700Z,98.90
2022-12-31T21:27:33.508Z,98.80
2022-12-31T21:30:19.938Z,98.80
2022-12-31T21:32:48.080Z,98.80
2022-12-31T21:35:43.253Z,98.80
2022-12-31T21:38:05.351Z,98.80
2022-12-31T21:40:33.923Z,98.60
2022-12-31T21:43:02.123Z,98.60
2022-12-31T21:45:29.591Z,98.50
2022-12-31T21:48:18.354Z,98.50
2022-12-31T21:50:49.473Z,98.50
2022-12-31T21:53:26.145Z,98.70
2022-12-31T21:56:16.073Z,98.60
2022-12-31T21:58:45.906Z,98.50
2022-12-31T22:01:44.404Z,98.40
2022-12-31T22:04:35.219Z,98.60
2022-12-31T22:07:01.404Z,98.70
2022-12-31T22:09:28.608Z,98.50
2022-12-31T22:11:58.672Z,98.50
2022-12-31T22:14:31.667Z,98.70
2022-12-31T22:16:59.030Z,98.80
2022-12-31T22:19:26.199Z,99.00
2022-12-31T22:21:56.387Z,98.80
2022-12-31T22:24:23.697Z,99.00
2022-12-31T22:26:52.429Z,99.10
2022-12-31T22:29:21.653Z,99.00
2022-12-31T22:31:48.899Z,99.10
2022-12-31T22:34:17.249Z,99.20
2022-12-31T22:36:44.799Z,99.10
2022-12-31T22:39:44.787Z,99.10
2022-12-31T22:42:03.475Z,99.20
2022-12-31T22:44:30.502Z,99.30
2022-12-31T22:47:00.995Z,99.20
2022-12-31T22:49:33.451Z,99.20
2022-12-31T22:52:04.230Z,99.00
2022-12-31T22:54:38.704Z,99.10
2022-12-31T22:57:19.809Z,99.00
2022-12-31T22:59:48.558Z,99.10
2022-12-31T23:02:16.505Z,99.20
2022-12-31T23:04:52.237Z,99.20
2022-12-31T23:07:21.931Z,99.20
2022-12-31T23:10:08.383Z,99.40
2022-12-31T23:12:38.671Z,99.40
2022-12-31T23:15:28.718Z,99.40
2022-12-31T23:18:14.523Z,99.40
2022-12-31T23:21:02.955Z,99.40
2022-12-31T23:23:31.730Z,99.40
2022-12-31T23:26:02.808Z,99.60
2022-12-31T23:28:30.172Z,99.50
2022-12-31T23:31:05.627Z,99.40
2022-12-31T23:33:33.281Z,99.50
2022-12-31T23:36:07.539Z,99.40
2022-12-31T23:38:35.573Z,99.50
2022-12-31T23:41:16.099Z,99.50
2022-12-31T23:43:44.711Z,99.60
2022-12-31T23:46:16.010Z,99.50
2022-12-31T23:48:51.111Z,99.50
2022-12-31T23:51:21.369Z,99.40
2022-12-31T23:53:53.096Z,99.40
2022-12-31T23:56:23.975Z,99.40
2022-12-31T23:58:59.508Z,99.30
